^^
Station Historical Data
Daily Summary for June 1, 2017 Units:  Metric    English   Both
« Previous Day
Next Day »
Daily Weekly Monthly Yearly Custom
  High: Low: Average:
Temperature: 28.3 °C 14.5 °C 19.9 °C
Dew Point: 2.8 °C -1.9 °C 0.1 °C
Humidity: 35% 17% 27%
Wind Speed: 17.7km/h 0km/h 2.9km/h
Wind Gust: 19.3km/h - -
Wind- - NNW
Pressure: 1020.5 hPa 1016.8 hPa -
Precipitation: 0 mm    
Historical Graphs
 
 
Tabular Data for June 1, 2017
Time Temperature Dew Point Pressure Wind Wind Speed Wind Gust Humidity Rainfall Rate (Hourly) solar Conditions
00:02 19.7 °C -0.9 °C 1018.5 hPa NNW 7.9 km/h 9.7 km/h 25% 0 mm 0.0 W/m2
00:07 19.6 °C -0.4 °C 1018.5 hPa Calm   12.9 km/h 26% 0 mm 0.0 W/m2
00:12 19.4 °C -0.6 °C 1018.5 hPa Calm   8 km/h 26% 0 mm 0.0 W/m2
00:17 19.2 °C -0.8 °C 1018.5 hPa Calm   14.5 km/h 26% 0 mm 0.0 W/m2
00:22 19 °C -0.9 °C 1018.5 hPa NNW 1.4 km/h 11.3 km/h 26% 0 mm 0.0 W/m2
00:32 18.7 °C -0.7 °C 1018.5 hPa NNW 1.4 km/h 12.9 km/h 27% 0 mm 0.0 W/m2
00:37 18.6 °C -0.8 °C 1018.5 hPa NNW 1.4 km/h 12.9 km/h 27% 0 mm 0.0 W/m2
00:42 18.7 °C -0.7 °C 1018.5 hPa NNW 1.4 km/h 11.3 km/h 27% 0 mm 0.0 W/m2
00:47 18.6 °C -0.8 °C 1018.5 hPa NNW 3.2 km/h 14.5 km/h 27% 0 mm 0.0 W/m2
00:53 18.5 °C -0.9 °C 1018.5 hPa NNW 3.2 km/h 11.3 km/h 27% 0 mm 0.0 W/m2
01:03 18.4 °C -0.9 °C 1018.5 hPa NNW 7.9 km/h 12.9 km/h 27% 0 mm 0.0 W/m2
01:08 18.3 °C -1 °C 1018.5 hPa NNW 3.2 km/h 9.7 km/h 27% 0 mm 0.0 W/m2
01:13 18.2 °C -1.1 °C 1018.5 hPa NNW 9.7 km/h 14.5 km/h 27% 0 mm 0.0 W/m2
01:23 18.2 °C -1.1 °C 1018.5 hPa NNW 1.4 km/h 9.7 km/h 27% 0 mm 0.0 W/m2
01:28 18.1 °C -0.7 °C 1018.5 hPa Calm   9.7 km/h 28% 0 mm 0.0 W/m2
01:34 18 °C -0.8 °C 1018.5 hPa NNW 3.2 km/h 3.2 km/h 28% 0 mm 0.0 W/m2
01:39 18 °C -0.8 °C 1018.5 hPa NNW 6.4 km/h 9.7 km/h 28% 0 mm 0.0 W/m2
01:44 17.9 °C -0.9 °C 1018.5 hPa NNW 1.4 km/h 9.7 km/h 28% 0 mm 0.0 W/m2
01:49 17.8 °C -1 °C 1018.5 hPa Calm   8 km/h 28% 0 mm 0.0 W/m2
01:54 17.7 °C -1 °C 1018.5 hPa NNW 6.4 km/h 8 km/h 28% 0 mm 0.0 W/m2
02:04 17.4 °C -1.3 °C 1018.5 hPa Calm   6.4 km/h 28% 0 mm 0.0 W/m2
02:09 17.2 °C -1 °C 1018.5 hPa Calm     29% 0 mm 0.0 W/m2
02:14 17 °C -1.2 °C 1018.8 hPa Calm     29% 0 mm 0.0 W/m2
02:24 16.2 °C -1.9 °C 1018.8 hPa Calm     29% 0 mm 0.0 W/m2
02:29 15.6 °C -1.5 °C 1018.8 hPa Calm     31% 0 mm 0.0 W/m2
02:34 15.1 °C -1.5 °C 1018.8 hPa Calm     32% 0 mm 0.0 W/m2
02:40 14.8 °C -1.7 °C 1018.8 hPa Calm     32% 0 mm 0.0 W/m2
02:45 14.6 °C -1.5 °C 1018.8 hPa Calm   6.4 km/h 33% 0 mm 0.0 W/m2
02:50 14.7 °C -1.4 °C 1018.8 hPa NNW 3.2 km/h 8 km/h 33% 0 mm 0.0 W/m2
02:55 14.9 °C -1.2 °C 1018.8 hPa Calm   6.4 km/h 33% 0 mm 0.0 W/m2
03:00 15.2 °C -1 °C 1018.8 hPa NNW 1.4 km/h 1.6 km/h 33% 0 mm 0.0 W/m2
03:05 15.3 °C -1.3 °C 1018.8 hPa Calm   14.5 km/h 32% 0 mm 0.0 W/m2
03:11 15.4 °C -1.2 °C 1018.5 hPa NNW 11.1 km/h 12.9 km/h 32% 0 mm 0.0 W/m2
03:21 16.3 °C -0.9 °C 1018.5 hPa Calm   12.9 km/h 31% 0 mm 0.0 W/m2
03:26 16.5 °C -1.1 °C 1018.5 hPa NNW 6.4 km/h 14.5 km/h 30% 0 mm 0.0 W/m2
03:31 16.6 °C -1.1 °C 1018.5 hPa NNW 1.4 km/h 11.3 km/h 30% 0 mm 0.0 W/m2
03:41 16.6 °C -1.1 °C 1018.5 hPa NNW 6.4 km/h 9.7 km/h 30% 0 mm 0.0 W/m2
03:51 16.1 °C -1 °C 1018.5 hPa NNW 7.9 km/h 11.3 km/h 31% 0 mm 0.0 W/m2
03:56 15.5 °C -1.6 °C 1018.5 hPa NNW 3.2 km/h 11.3 km/h 31% 0 mm 0.0 W/m2
04:01 15.1 °C -1.1 °C 1018.5 hPa Calm   9.7 km/h 33% 0 mm 0.0 W/m2
04:06 14.7 °C -1.4 °C 1018.5 hPa Calm   9.7 km/h 33% 0 mm 0.0 W/m2
04:11 14.6 °C -1.1 °C 1018.5 hPa Calm   8 km/h 34% 0 mm 0.0 W/m2
04:21 14.5 °C -1.2 °C 1018.5 hPa NNW 11.1 km/h 11.3 km/h 34% 0 mm 0.0 W/m2
04:26 14.6 °C -1.1 °C 1018.5 hPa NNW 1.4 km/h 17.7 km/h 34% 0 mm 0.0 W/m2
04:31 14.6 °C -1.1 °C 1018.5 hPa NNW 6.4 km/h 17.7 km/h 34% 0 mm 0.0 W/m2
04:36 15.1 °C -1.1 °C 1018.8 hPa NNW 17.7 km/h 17.7 km/h 33% 0 mm 0.0 W/m2
04:41 15.6 °C -0.6 °C 1018.5 hPa NNW 7.9 km/h 17.7 km/h 33% 0 mm 0.0 W/m2
04:51 15.7 °C -1 °C 1018.8 hPa NNW 7.9 km/h 17.7 km/h 32% 0 mm 0.0 W/m2
04:56 15.7 °C -1 °C 1018.8 hPa NNW 7.9 km/h 14.5 km/h 32% 0 mm 0.0 W/m2
05:06 15.7 °C -1 °C 1018.5 hPa NNW 9.7 km/h 17.7 km/h 32% 0 mm 0.0 W/m2
05:11 15.8 °C -0.9 °C 1018.8 hPa NNW 17.7 km/h 17.7 km/h 32% 0 mm 0.0 W/m2
05:16 15.7 °C -1 °C 1018.5 hPa North 13 km/h 17.7 km/h 32% 0 mm 0.0 W/m2
05:21 15.7 °C -1 °C 1018.8 hPa North 11.1 km/h 14.5 km/h 32% 0 mm 0.0 W/m2
05:26 15.6 °C -1 °C 1018.8 hPa North 7.9 km/h 17.7 km/h 32% 0 mm 0.0 W/m2
05:31 15.6 °C -0.6 °C 1018.8 hPa North 9.7 km/h 14.5 km/h 33% 0 mm 0.0 W/m2
05:41 15.6 °C -0.6 °C 1018.8 hPa North 9.7 km/h 17.7 km/h 33% 0 mm 0.0 W/m2
05:46 15.7 °C -0.5 °C 1018.8 hPa North 6.4 km/h 14.5 km/h 33% 0 mm 0.0 W/m2
05:51 15.7 °C -0.5 °C 1018.8 hPa North 3.2 km/h 14.5 km/h 33% 0 mm 0.0 W/m2
05:57 15.7 °C -0.5 °C 1018.8 hPa North 11.1 km/h 12.9 km/h 33% 0 mm 0.0 W/m2
06:02 15.7 °C -0.5 °C 1019.2 hPa North 11.1 km/h 12.9 km/h 33% 0 mm 0.0 W/m2
06:07 15.7 °C -0.5 °C 1019.2 hPa North 9.7 km/h 12.9 km/h 33% 0 mm 0.0 W/m2
06:14 15.6 °C -0.2 °C 1019.2 hPa North 6.4 km/h 14.5 km/h 34% 0 mm 0.0 W/m2
06:25 15.6 °C -0.2 °C 1019.2 hPa North 11.1 km/h 14.5 km/h 34% 0 mm 0.0 W/m2
06:34 15.5 °C 0.1 °C 1019.2 hPa Calm   14.5 km/h 35% 0 mm 5.0 W/m2
06:42 15.6 °C 0.2 °C 1019.5 hPa North 3.2 km/h 12.9 km/h 35% 0 mm 9.0 W/m2
06:47 15.5 °C 0.1 °C 1019.5 hPa North 7.9 km/h 12.9 km/h 35% 0 mm 12.0 W/m2
06:57 15.6 °C 0.2 °C 1019.5 hPa North 7.9 km/h 11.3 km/h 35% 0 mm 18.0 W/m2
07:05 15.8 °C 0.4 °C 1019.5 hPa North 13 km/h 14.5 km/h 35% 0 mm 19.0 W/m2
07:32 16.9 °C 0.9 °C 1019.5 hPa North 7.9 km/h 12.9 km/h 34% 0 mm 100.0 W/m2
08:03 18 °C 1.1 °C 1020.2 hPa North 1.4 km/h 11.3 km/h 32% 0 mm 209.0 W/m2
08:17 18.7 °C 1.7 °C 1020.2 hPa Calm   9.7 km/h 32% 0 mm 253.0 W/m2
08:34 19.4 °C 1.8 °C 1020.2 hPa North 1.4 km/h 11.3 km/h 31% 0 mm 294.0 W/m2
09:04 21.1 °C 2.4 °C 1020.2 hPa Calm     29% 0 mm 374.0 W/m2
09:18 20.9 °C 0.7 °C 1020.5 hPa Calm   3.2 km/h 26% 0 mm 415.0 W/m2
09:27 21 °C 1.3 °C 1020.2 hPa Calm   3.2 km/h 27% 0 mm 438.0 W/m2
09:36 21.6 °C 1.8 °C 1020.2 hPa Calm   11.3 km/h 27% 0 mm 461.0 W/m2
09:56 22.7 °C 2.2 °C 1020.2 hPa Calm   9.7 km/h 26% 0 mm 496.0 W/m2
10:02 23 °C 1.9 °C 1020.2 hPa North 11.1 km/h 11.3 km/h 25% 0 mm 504.0 W/m2
10:12 23.2 °C 2.1 °C 1020.2 hPa North 6.4 km/h 9.7 km/h 25% 0 mm 520.0 W/m2
10:20 23.7 °C 2.5 °C 1020.2 hPa North 1.4 km/h 9.7 km/h 25% 0 mm 536.0 W/m2
10:25 23.7 °C 2.5 °C 1019.9 hPa North 3.2 km/h 8 km/h 25% 0 mm 543.0 W/m2
10:40 24 °C 2.8 °C 1019.9 hPa North 13 km/h 13 km/h 25% 0 mm 561.0 W/m2
10:59 24 °C 2.2 °C 1019.5 hPa Calm   19.3 km/h 24% 0 mm 578.0 W/m2
11:10 24.3 °C 2.4 °C 1019.5 hPa North 1.4 km/h 12.9 km/h 24% 0 mm 582.0 W/m2
11:22 24.9 °C 2.3 °C 1019.2 hPa North 11.1 km/h 12.9 km/h 23% 0 mm 592.0 W/m2
11:29 25.1 °C 1.9 °C 1019.2 hPa North 9.7 km/h 14.5 km/h 22% 0 mm 594.0 W/m2
11:40 25.2 °C 1.3 °C 1018.8 hPa Calm   9.7 km/h 21% 0 mm 596.0 W/m2
12:11 26.1 °C 2.1 °C 1018.5 hPa North 7.9 km/h 12.9 km/h 21% 0 mm 594.0 W/m2
12:40 26.9 °C 2 °C 1018.2 hPa North 1.4 km/h 1.6 km/h 20% 0 mm 577.0 W/m2
12:49 26.9 °C 2 °C 1018.2 hPa Calm   8 km/h 20% 0 mm 568.0 W/m2
12:58 27.1 °C 2.2 °C 1017.8 hPa North 3.2 km/h 9.7 km/h 20% 0 mm 555.0 W/m2
13:07 27.2 °C 1.6 °C 1017.8 hPa North 9.7 km/h 14.5 km/h 19% 0 mm 547.0 W/m2
13:12 27.3 °C 1.7 °C 1017.5 hPa Calm     19% 0 mm 538.0 W/m2
13:17 27.4 °C 1.7 °C 1017.5 hPa Calm     19% 0 mm 529.0 W/m2
13:23 27.4 °C 1 °C 1017.5 hPa Calm   12.9 km/h 18% 0 mm 522.0 W/m2
13:29 27.3 °C 1.7 °C 1017.5 hPa North 3.2 km/h 8 km/h 19% 0 mm 513.0 W/m2
13:34 27.5 °C 1.8 °C 1017.5 hPa Calm   11.3 km/h 19% 0 mm 506.0 W/m2
13:40 27.6 °C 1.1 °C 1017.5 hPa Calm   12.9 km/h 18% 0 mm 497.0 W/m2
13:45 27.6 °C 1.9 °C 1017.2 hPa Calm   9.7 km/h 19% 0 mm 489.0 W/m2
13:56 28 °C 1.5 °C 1017.2 hPa Calm   1.6 km/h 18% 0 mm 469.0 W/m2
14:09 27.9 °C 1.4 °C 1016.8 hPa Calm   3.2 km/h 18% 0 mm 448.0 W/m2
14:22 28.3 °C 0.9 °C 1016.8 hPa North 6.4 km/h 6.4 km/h 17% 0 mm 415.0 W/m2
14:31 28.1 °C 0.8 °C 1016.8 hPa North 6.4 km/h 9.7 km/h 17% 0 mm 392.0 W/m2
14:38 28 °C 0.7 °C 1016.8 hPa Calm     17% 0 mm 378.0 W/m2
15:15 28.2 °C 0.8 °C 1016.8 hPa Calm   9.7 km/h 17% 0 mm 287.0 W/m2
15:31 28 °C 0.7 °C 1016.8 hPa Calm     17% 0 mm 246.0 W/m2
15:47 27.7 °C 1.2 °C 1016.8 hPa Calm     18% 0 mm 195.0 W/m2
16:03 27.9 °C 1.4 °C 1016.8 hPa Calm     18% 0 mm 139.0 W/m2
16:14 27.7 °C 1.2 °C 1016.8 hPa Calm     18% 0 mm 91.0 W/m2
16:23 27.6 °C 1.1 °C 1016.8 hPa Calm     18% 0 mm 62.0 W/m2
16:32 27.3 °C 0.9 °C 1017.2 hPa Calm     18% 0 mm 37.0 W/m2
16:37 27.2 °C 0.8 °C 1017.2 hPa Calm     18% 0 mm 25.0 W/m2
16:43 27.1 °C 0.7 °C 1017.2 hPa Calm   1.6 km/h 18% 0 mm 16.0 W/m2
16:52 26.4 °C 0.9 °C 1017.2 hPa Calm     19% 0 mm 9.0 W/m2
17:03 25.5 °C 0.9 °C 1017.2 hPa Calm     20% 0 mm 0.0 W/m2
17:09 25.2 °C 0.6 °C 1017.2 hPa Calm     20% 0 mm 0.0 W/m2
17:18 24.6 °C 0.8 °C 1017.2 hPa Calm     21% 0 mm 0.0 W/m2
17:24 24.3 °C 0.6 °C 1017.2 hPa Calm     21% 0 mm 0.0 W/m2
17:30 23.9 °C 0.9 °C 1017.2 hPa Calm     22% 0 mm 0.0 W/m2
17:35 23.7 °C 0.7 °C 1017.2 hPa Calm     22% 0 mm 0.0 W/m2
17:41 23.4 °C -0.2 °C 1017.2 hPa Calm     21% 0 mm 0.0 W/m2
17:53 22.7 °C -0.1 °C 1017.2 hPa Calm     22% 0 mm 0.0 W/m2
18:04 22.2 °C 0.1 °C 1017.2 hPa Calm   8 km/h 23% 0 mm 0.0 W/m2
18:15 22.1 °C 0 °C 1017.2 hPa North 1.4 km/h 1.6 km/h 23% 0 mm 0.0 W/m2
18:31 21.8 °C -0.3 °C 1017.5 hPa Calm     23% 0 mm 0.0 W/m2
18:47 21.2 °C -0.2 °C 1017.5 hPa Calm     24% 0 mm 0.0 W/m2
19:25 20.2 °C -0.5 °C 1017.5 hPa Calm     25% 0 mm 0.0 W/m2
19:45 19.7 °C -0.3 °C 1017.8 hPa Calm     26% 0 mm 0.0 W/m2
20:03 19.3 °C -0.2 °C 1017.8 hPa Calm     27% 0 mm 0.0 W/m2
20:27 18.3 °C -0.5 °C 1017.8 hPa Calm     28% 0 mm 0.0 W/m2
20:37 18 °C -0.3 °C 1017.8 hPa Calm     29% 0 mm 0.0 W/m2
20:47 17.9 °C -0.4 °C 1017.8 hPa Calm     29% 0 mm 0.0 W/m2
20:57 17.9 °C -0.4 °C 1017.8 hPa Calm     29% 0 mm 0.0 W/m2
21:02 17.8 °C -0.5 °C 1017.8 hPa Calm     29% 0 mm 0.0 W/m2
21:08 17.8 °C -0.5 °C 1017.8 hPa Calm     29% 0 mm 0.0 W/m2
21:16 17.5 °C -0.7 °C 1017.8 hPa Calm     29% 0 mm 0.0 W/m2
21:21 17.3 °C -0.4 °C 1017.8 hPa Calm     30% 0 mm 0.0 W/m2
21:26 17.1 °C -0.6 °C 1017.8 hPa Calm     30% 0 mm 0.0 W/m2
21:31 16.9 °C -0.3 °C 1017.8 hPa Calm     31% 0 mm 0.0 W/m2
21:36 16.8 °C -0.9 °C 1017.8 hPa Calm     30% 0 mm 0.0 W/m2
21:41 16.6 °C -0.6 °C 1017.8 hPa Calm     31% 0 mm 0.0 W/m2
21:47 16.5 °C -0.7 °C 1018.2 hPa Calm     31% 0 mm 0.0 W/m2
21:52 16.4 °C -0.3 °C 1018.2 hPa Calm     32% 0 mm 0.0 W/m2
21:57 16.6 °C -0.2 °C 1018.2 hPa Calm     32% 0 mm 0.0 W/m2
22:07 16.9 °C -0.3 °C 1018.2 hPa Calm     31% 0 mm 0.0 W/m2
22:09 16.8 °C -0.4 °C 1018.2 hPa Calm     31% 0 mm 0.0 W/m2
22:19 17.1 °C -0.2 °C 1018.2 hPa Calm     31% 0 mm 0.0 W/m2
22:25 17.1 °C -0.2 °C 1018.2 hPa Calm     31% 0 mm 0.0 W/m2
22:35 16.9 °C -0.3 °C 1018.2 hPa Calm     31% 0 mm 0.0 W/m2
22:39 16.8 °C -0.4 °C 1018.2 hPa Calm     31% 0 mm 0.0 W/m2
22:47 16.7 °C -0.1 °C 1018.2 hPa Calm     32% 0 mm 0.0 W/m2
Canyon Roadhouse, Fishriver Canyon, Namibia
Compliments of Weather Underground - 2.5 mb